MST,Max TemperatureF,Mean TemperatureF,Min TemperatureF,Max Dew PointF,MeanDew PointF,Min DewpointF,Max Humidity, Mean Humidity, Min Humidity, Max Sea Level PressureIn, Mean Sea Level PressureIn, Min Sea Level PressureIn, Max VisibilityMiles, Mean VisibilityMiles, Min VisibilityMiles, Max Wind SpeedMPH, Mean Wind SpeedMPH, Max Gust SpeedMPH,PrecipitationIn, CloudCover, Events, WindDirDegrees
2011-10-1,103,93,82,68,49,43,43,28,13,29.87,29.81,29.77,10,10,10,14,6,17,0.00,2,Thunderstorm,81
2011-10-2,102,91,80,68,57,48,59,38,17,29.91,29.84,29.78,10,10,10,12,4,14,0.00,0,,158
2011-10-3,100,89,77,69,59,47,71,44,17,29.86,29.79,29.71,10,10,10,10,7,14,0.01,2,Rain,197
2011-10-4,86,77,68,52,45,38,46,33,19,29.84,29.78,29.74,10,9,3,29,12,37,0.00,3,,297
2011-10-5,84,74,63,55,44,37,48,35,21,29.90,29.81,29.73,10,10,10,21,7,25,0.00,3,,257
2011-10-6,78,70,61,45,37,32,49,35,20,29.86,29.81,29.75,10,10,10,21,12,28,0.00,2,,298
2011-10-7,81,69,57,41,31,19,51,31,10,30.00,29.95,29.87,10,10,10,17,7,23,0.00,0,,324
2011-10-8,85,71,56,37,30,24,43,28,13,30.01,29.95,29.88,10,10,10,16,6,23,0.00,0,,1
2011-10-9,88,74,60,37,33,29,42,27,12,29.95,29.88,29.82,10,10,10,13,5,17,0.00,0,,6
2011-10-10,91,77,63,37,33,29,34,23,11,29.90,29.83,29.78,10,10,10,12,4,15,0.00,0,,16
2011-10-11,95,78,61,40,34,28,39,24,9,29.86,29.81,29.77,10,10,10,10,3,15,0.00,0,,2
2011-10-12,100,83,66,45,38,24,45,28,10,29.87,29.82,29.76,10,10,10,17,7,22,0.00,0,,356
2011-10-13,102,85,67,41,31,21,27,17,7,29.85,29.78,29.71,10,10,10,13,4,15,0.00,0,,11
2011-10-14,100,83,66,55,43,35,61,36,11,29.85,29.78,29.74,10,10,9,7,1,8,0.00,2,,62
2011-10-15,99,83,67,53,47,38,56,34,12,29.86,29.80,29.76,10,10,9,8,2,10,0.00,0,,219
2011-10-16,102,86,69,55,47,29,57,33,8,29.91,29.86,29.81,10,10,10,12,3,15,0.00,0,,240
2011-10-17,102,86,70,57,45,34,54,32,10,29.95,29.89,29.85,10,10,10,12,4,16,0.00,1,,321
2011-10-18,98,86,74,38,29,24,23,16,8,29.96,29.88,29.82,10,10,10,16,9,22,0.00,0,,356
2011-10-19,99,83,67,43,32,23,35,21,7,29.84,29.79,29.72,10,10,8,13,3,16,0.00,0,,22
2011-10-20,96,81,65,53,42,31,46,31,15,29.91,29.86,29.80,10,10,10,16,5,21,0.00,0,,163
2011-10-21,92,80,67,54,49,45,51,36,21,30.01,29.95,29.91,10,10,10,9,3,13,0.00,0,,331
2011-10-22,99,84,68,53,42,31,57,34,11,29.98,29.92,29.86,10,10,10,10,4,17,0.00,0,,19
2011-10-23,99,85,70,43,34,26,29,19,8,29.94,29.88,29.83,10,10,10,13,3,15,0.00,0,,54
2011-10-24,95,81,67,58,45,36,52,34,15,29.94,29.88,29.83,10,10,10,10,3,13,0.00,3,,140
2011-10-25,91,79,66,62,51,41,68,48,27,29.93,29.86,29.79,10,10,7,21,7,28,0.00,2,,267
2011-10-26,85,74,63,46,34,14,52,32,11,29.96,29.87,29.82,10,10,10,21,12,28,0.00,0,,324
2011-10-27,79,70,61,24,17,12,20,16,11,30.03,29.98,29.93,10,10,10,22,10,31,0.00,0,,346
2011-10-28,86,71,55,30,21,12,28,19,9,30.08,30.01,29.96,10,10,10,10,4,15,0.00,2,,336
2011-10-29,88,74,59,50,28,15,39,23,7,30.03,29.97,29.92,10,10,10,14,3,17,0.00,1,,342
2011-10-30,91,74,56,37,29,21,43,26,9,30.04,29.98,29.94,10,10,10,10,3,14,0.00,0,,356
2011-10-31,92,75,58,37,31,22,42,25,8,29.97,29.91,29.84,10,10,10,8,2,9,0.00,0,,23